sensor_id;sensor_type;location;lat;lon;timestamp;pressure;altitude;pressure_sealevel;temperature;humidity
21828;BME280;11076;47.942;11.804;2023-02-02T00:00:46;94694.31;;;2.15;91.93
21828;BME280;11076;47.942;11.804;2023-02-02T00:05:53;94682.47;;;2.19;91.31
21828;BME280;11076;47.942;11.804;2023-02-02T00:10:55;94695.97;;;2.25;90.87
21828;BME280;11076;47.942;11.804;2023-02-02T00:15:58;94677.84;;;2.22;90.53
21828;BME280;11076;47.942;11.804;2023-02-02T00:21:00;94680.81;;;2.27;89.95
21828;BME280;11076;47.942;11.804;2023-02-02T00:26:03;94667.63;;;2.27;89.20
21828;BME280;11076;47.942;11.804;2023-02-02T00:31:05;94667.97;;;2.32;88.33
21828;BME280;11076;47.942;11.804;2023-02-02T00:36:08;94653.47;;;2.36;88.61
21828;BME280;11076;47.942;11.804;2023-02-02T00:41:10;94664.81;;;2.28;89.06
21828;BME280;11076;47.942;11.804;2023-02-02T00:46:16;94656.91;;;2.28;89.49
21828;BME280;11076;47.942;11.804;2023-02-02T00:51:19;94663.19;;;2.19;90.43
21828;BME280;11076;47.942;11.804;2023-02-02T00:56:22;94665.97;;;2.17;91.03
21828;BME280;11076;47.942;11.804;2023-02-02T01:01:24;94668.44;;;2.19;90.59
21828;BME280;11076;47.942;11.804;2023-02-02T01:06:28;94683.13;;;2.22;90.39
21828;BME280;11076;47.942;11.804;2023-02-02T01:11:31;94675.53;;;2.27;89.61
21828;BME280;11076;47.942;11.804;2023-02-02T01:16:33;94682.47;;;2.28;90.11
21828;BME280;11076;47.942;11.804;2023-02-02T01:21:35;94676.19;;;2.29;90.62
21828;BME280;11076;47.942;11.804;2023-02-02T01:26:38;94675.53;;;2.27;90.13
21828;BME280;11076;47.942;11.804;2023-02-02T01:31:40;94675.72;;;2.25;90.87
21828;BME280;11076;47.942;11.804;2023-02-02T01:36:44;94672.56;;;2.22;91.57
21828;BME280;11076;47.942;11.804;2023-02-02T01:41:47;94664.00;;;2.19;91.64
21828;BME280;11076;47.942;11.804;2023-02-02T01:46:50;94660.34;;;2.21;92.95
21828;BME280;11076;47.942;11.804;2023-02-02T01:51:56;94638.44;;;2.20;91.84
21828;BME280;11076;47.942;11.804;2023-02-02T01:57:10;94633.31;;;2.18;92.33
21828;BME280;11076;47.942;11.804;2023-02-02T02:02:14;94641.88;;;2.12;92.92
21828;BME280;11076;47.942;11.804;2023-02-02T02:07:17;94634.97;;;2.19;93.00
21828;BME280;11076;47.942;11.804;2023-02-02T02:12:21;94635.78;;;2.12;93.04
21828;BME280;11076;47.942;11.804;2023-02-02T02:29:17;94634.97;;;2.19;91.94
21828;BME280;11076;47.942;11.804;2023-02-02T02:45:16;94610.59;;;2.26;92.31
21828;BME280;11076;47.942;11.804;2023-02-02T02:50:19;94615.38;;;2.30;91.22
21828;BME280;11076;47.942;11.804;2023-02-02T02:55:23;94600.38;;;2.31;90.75
21828;BME280;11076;47.942;11.804;2023-02-02T03:05:53;94602.81;;;2.32;91.47
21828;BME280;11076;47.942;11.804;2023-02-02T03:10:58;94609.63;;;2.35;91.19
21828;BME280;11076;47.942;11.804;2023-02-02T03:16:03;94599.53;;;2.38;90.95
21828;BME280;11076;47.942;11.804;2023-02-02T03:21:06;94605.31;;;2.42;90.44
21828;BME280;11076;47.942;11.804;2023-02-02T03:26:08;94609.28;;;2.38;90.97
21828;BME280;11076;47.942;11.804;2023-02-02T03:31:11;94607.31;;;2.48;90.10
21828;BME280;11076;47.942;11.804;2023-02-02T03:36:13;94624.13;;;2.47;89.76
21828;BME280;11076;47.942;11.804;2023-02-02T03:41:15;94611.91;;;2.38;91.80
21828;BME280;11076;47.942;11.804;2023-02-02T03:46:18;94620.34;;;2.42;91.15
21828;BME280;11076;47.942;11.804;2023-02-02T03:51:20;94622.81;;;2.35;93.43
21828;BME280;11076;47.942;11.804;2023-02-02T03:56:22;94630.50;;;2.12;97.72
21828;BME280;11076;47.942;11.804;2023-02-02T04:01:27;94647.09;;;1.96;99.49
21828;BME280;11076;47.942;11.804;2023-02-02T04:06:30;94636.91;;;2.01;99.74
21828;BME280;11076;47.942;11.804;2023-02-02T04:11:32;94622.22;;;2.07;97.55
21828;BME280;11076;47.942;11.804;2023-02-02T04:16:35;94611.22;;;2.19;96.50
21828;BME280;11076;47.942;11.804;2023-02-02T04:21:39;94627.38;;;2.16;96.70
21828;BME280;11076;47.942;11.804;2023-02-02T04:26:41;94632.50;;;2.26;95.99
21828;BME280;11076;47.942;11.804;2023-02-02T04:31:44;94641.59;;;2.32;95.50
21828;BME280;11076;47.942;11.804;2023-02-02T04:36:46;94629.88;;;2.43;94.06
21828;BME280;11076;47.942;11.804;2023-02-02T04:41:48;94622.16;;;2.49;92.86
21828;BME280;11076;47.942;11.804;2023-02-02T04:46:51;94632.88;;;2.48;92.97
21828;BME280;11076;47.942;11.804;2023-02-02T04:51:53;94632.38;;;2.52;92.25
21828;BME280;11076;47.942;11.804;2023-02-02T04:56:55;94632.56;;;2.67;92.12
21828;BME280;11076;47.942;11.804;2023-02-02T05:01:59;94648.25;;;2.69;92.02
21828;BME280;11076;47.942;11.804;2023-02-02T05:07:02;94668.22;;;2.63;92.11
21828;BME280;11076;47.942;11.804;2023-02-02T05:12:04;94664.91;;;2.69;90.48
21828;BME280;11076;47.942;11.804;2023-02-02T05:17:06;94659.13;;;2.74;89.74
21828;BME280;11076;47.942;11.804;2023-02-02T05:22:09;94670.34;;;2.68;90.48
21828;BME280;11076;47.942;11.804;2023-02-02T05:27:11;94670.84;;;2.71;89.85
21828;BME280;11076;47.942;11.804;2023-02-02T05:32:14;94666.06;;;2.67;91.55
21828;BME280;11076;47.942;11.804;2023-02-02T05:37:16;94680.91;;;2.59;92.03
21828;BME280;11076;47.942;11.804;2023-02-02T05:42:18;94678.75;;;2.55;94.46
21828;BME280;11076;47.942;11.804;2023-02-02T05:47:21;94689.59;;;2.35;97.35
21828;BME280;11076;47.942;11.804;2023-02-02T05:52:24;94695.31;;;2.23;98.93
21828;BME280;11076;47.942;11.804;2023-02-02T05:57:27;94684.75;;;2.14;100.00
21828;BME280;11076;47.942;11.804;2023-02-02T06:02:29;94697.63;;;2.17;100.00
21828;BME280;11076;47.942;11.804;2023-02-02T06:07:31;94691.84;;;2.14;100.00
21828;BME280;11076;47.942;11.804;2023-02-02T06:12:34;94695.94;;;2.08;100.00
21828;BME280;11076;47.942;11.804;2023-02-02T06:17:36;94693.63;;;2.05;100.00
21828;BME280;11076;47.942;11.804;2023-02-02T06:22:38;94675.31;;;2.04;100.00
21828;BME280;11076;47.942;11.804;2023-02-02T06:27:41;94685.75;;;2.13;100.00
21828;BME280;11076;47.942;11.804;2023-02-02T06:32:43;94690.38;;;2.19;100.00
21828;BME280;11076;47.942;11.804;2023-02-02T06:37:45;94690.53;;;2.18;100.00
21828;BME280;11076;47.942;11.804;2023-02-02T06:42:54;94691.97;;;2.12;100.00
21828;BME280;11076;47.942;11.804;2023-02-02T06:48:00;94697.75;;;2.08;100.00
21828;BME280;11076;47.942;11.804;2023-02-02T06:53:05;94719.66;;;2.08;100.00
21828;BME280;11076;47.942;11.804;2023-02-02T06:58:07;94680.47;;;2.13;100.00
21828;BME280;11076;47.942;11.804;2023-02-02T07:03:09;94708.84;;;2.19;100.00
21828;BME280;11076;47.942;11.804;2023-02-02T07:08:12;94711.31;;;2.21;100.00
21828;BME280;11076;47.942;11.804;2023-02-02T07:13:14;94725.38;;;2.30;100.00
21828;BME280;11076;47.942;11.804;2023-02-02T07:18:16;94732.75;;;2.26;100.00
21828;BME280;11076;47.942;11.804;2023-02-02T07:23:19;94740.03;;;2.32;100.00
21828;BME280;11076;47.942;11.804;2023-02-02T07:28:21;94746.47;;;2.30;100.00
21828;BME280;11076;47.942;11.804;2023-02-02T07:33:24;94752.78;;;2.37;100.00
21828;BME280;11076;47.942;11.804;2023-02-02T07:38:26;94757.06;;;2.46;100.00
21828;BME280;11076;47.942;11.804;2023-02-02T07:43:29;94754.78;;;2.51;99.80
21828;BME280;11076;47.942;11.804;2023-02-02T07:48:31;94749.03;;;2.56;99.76
21828;BME280;11076;47.942;11.804;2023-02-02T07:53:34;94754.31;;;2.56;100.00
21828;BME280;11076;47.942;11.804;2023-02-02T07:58:36;94755.75;;;2.50;100.00
21828;BME280;11076;47.942;11.804;2023-02-02T08:03:40;94763.19;;;2.47;100.00
21828;BME280;11076;47.942;11.804;2023-02-02T08:08:44;94759.75;;;2.54;100.00
21828;BME280;11076;47.942;11.804;2023-02-02T08:13:48;94768.00;;;2.51;100.00
21828;BME280;11076;47.942;11.804;2023-02-02T08:18:51;94779.50;;;2.42;100.00
21828;BME280;11076;47.942;11.804;2023-02-02T08:34:47;94813.06;;;2.66;100.00
21828;BME280;11076;47.942;11.804;2023-02-02T08:39:50;94812.22;;;2.57;100.00
21828;BME280;11076;47.942;11.804;2023-02-02T08:50:03;94824.09;;;2.53;100.00
21828;BME280;11076;47.942;11.804;2023-02-02T08:55:06;94822.28;;;2.62;100.00
21828;BME280;11076;47.942;11.804;2023-02-02T09:00:09;94833.38;;;2.66;100.00
21828;BME280;11076;47.942;11.804;2023-02-02T09:05:12;94835.25;;;2.82;100.00
21828;BME280;11076;47.942;11.804;2023-02-02T09:10:15;94832.09;;;2.78;100.00
21828;BME280;11076;47.942;11.804;2023-02-02T09:15:17;94830.13;;;2.80;100.00
21828;BME280;11076;47.942;11.804;2023-02-02T09:20:20;94838.41;;;2.85;100.00
21828;BME280;11076;47.942;11.804;2023-02-02T09:25:23;94840.41;;;2.91;100.00
21828;BME280;11076;47.942;11.804;2023-02-02T09:30:27;94825.72;;;2.97;100.00
21828;BME280;11076;47.942;11.804;2023-02-02T09:35:29;94853.09;;;2.88;100.00
21828;BME280;11076;47.942;11.804;2023-02-02T09:40:33;94850.63;;;2.94;100.00
21828;BME280;11076;47.942;11.804;2023-02-02T09:45:46;94861.53;;;2.99;100.00
21828;BME280;11076;47.942;11.804;2023-02-02T09:50:58;94834.47;;;3.06;100.00
21828;BME280;11076;47.942;11.804;2023-02-02T09:56:05;94855.50;;;3.24;99.33
21828;BME280;11076;47.942;11.804;2023-02-02T10:01:13;94847.91;;;3.21;98.53
21828;BME280;11076;47.942;11.804;2023-02-02T10:06:24;94856.69;;;3.46;97.48
21828;BME280;11076;47.942;11.804;2023-02-02T10:33:39;94840.44;;;3.16;99.56
21828;BME280;11076;47.942;11.804;2023-02-02T10:39:23;94851.53;;;3.19;99.90
21828;BME280;11076;47.942;11.804;2023-02-02T10:49:37;94851.69;;;3.26;97.63
21828;BME280;11076;47.942;11.804;2023-02-02T10:54:56;94832.53;;;3.24;96.34
21828;BME280;11076;47.942;11.804;2023-02-02T11:05:22;94838.31;;;3.28;95.10
21828;BME280;11076;47.942;11.804;2023-02-02T11:10:44;94845.44;;;3.35;95.72
21828;BME280;11076;47.942;11.804;2023-02-02T11:15:47;94818.69;;;3.47;94.56
21828;BME280;11076;47.942;11.804;2023-02-02T11:20:50;94832.06;;;3.53;94.77
21828;BME280;11076;47.942;11.804;2023-02-02T11:26:00;94826.31;;;3.66;94.03
21828;BME280;11076;47.942;11.804;2023-02-02T11:31:03;94830.59;;;3.75;94.90
21828;BME280;11076;47.942;11.804;2023-02-02T11:36:19;94812.41;;;3.81;94.76
21828;BME280;11076;47.942;11.804;2023-02-02T11:41:21;94811.56;;;3.96;94.71
21828;BME280;11076;47.942;11.804;2023-02-02T11:46:28;94818.69;;;3.79;95.83
21828;BME280;11076;47.942;11.804;2023-02-02T11:51:32;94814.56;;;3.69;97.32
21828;BME280;11076;47.942;11.804;2023-02-02T11:56:36;94817.03;;;3.70;97.68
21828;BME280;11076;47.942;11.804;2023-02-02T12:01:39;94810.41;;;3.83;97.42
21828;BME280;11076;47.942;11.804;2023-02-02T12:06:42;94821.16;;;3.73;98.02
21828;BME280;11076;47.942;11.804;2023-02-02T12:43:40;94837.19;;;3.47;100.00
21828;BME280;11076;47.942;11.804;2023-02-02T13:09:39;94845.72;;;3.16;100.00
21828;BME280;11076;47.942;11.804;2023-02-02T13:14:49;94854.16;;;3.11;100.00
21828;BME280;11076;47.942;11.804;2023-02-02T13:19:55;94855.13;;;3.10;100.00
21828;BME280;11076;47.942;11.804;2023-02-02T13:25:01;94866.53;;;3.03;100.00
21828;BME280;11076;47.942;11.804;2023-02-02T13:30:16;94895.53;;;2.94;100.00
21828;BME280;11076;47.942;11.804;2023-02-02T13:35:37;94895.97;;;2.82;100.00
21828;BME280;11076;47.942;11.804;2023-02-02T13:40:43;94899.09;;;2.77;100.00
21828;BME280;11076;47.942;11.804;2023-02-02T13:46:14;94902.38;;;2.71;100.00
21828;BME280;11076;47.942;11.804;2023-02-02T13:51:44;94903.06;;;2.73;100.00
21828;BME280;11076;47.942;11.804;2023-02-02T14:01:52;94905.97;;;2.62;100.00
21828;BME280;11076;47.942;11.804;2023-02-02T14:07:07;94915.03;;;2.59;100.00
21828;BME280;11076;47.942;11.804;2023-02-02T14:12:26;94924.59;;;2.60;100.00
21828;BME280;11076;47.942;11.804;2023-02-02T14:17:49;94914.50;;;2.55;100.00
21828;BME280;11076;47.942;11.804;2023-02-02T14:22:52;94923.69;;;2.43;100.00
21828;BME280;11076;47.942;11.804;2023-02-02T14:27:58;94929.94;;;2.42;100.00
21828;BME280;11076;47.942;11.804;2023-02-02T14:43:47;94942.78;;;2.37;100.00
21828;BME280;11076;47.942;11.804;2023-02-02T14:54:04;94946.53;;;2.34;100.00
21828;BME280;11076;47.942;11.804;2023-02-02T14:59:16;94952.19;;;2.39;100.00
21828;BME280;11076;47.942;11.804;2023-02-02T15:15:01;94944.06;;;2.33;100.00
21828;BME280;11076;47.942;11.804;2023-02-02T15:20:38;94942.59;;;2.38;100.00
21828;BME280;11076;47.942;11.804;2023-02-02T15:25:46;94961.91;;;2.39;100.00
21828;BME280;11076;47.942;11.804;2023-02-02T15:30:57;94949.56;;;2.39;100.00
21828;BME280;11076;47.942;11.804;2023-02-02T15:36:05;94958.66;;;2.45;100.00
21828;BME280;11076;47.942;11.804;2023-02-02T15:41:20;94964.66;;;2.55;100.00
21828;BME280;11076;47.942;11.804;2023-02-02T15:46:27;94970.25;;;2.52;100.00
21828;BME280;11076;47.942;11.804;2023-02-02T15:51:33;94969.22;;;2.45;100.00
21828;BME280;11076;47.942;11.804;2023-02-02T15:56:35;94977.81;;;2.47;100.00
21828;BME280;11076;47.942;11.804;2023-02-02T16:01:50;94990.34;;;2.45;100.00
21828;BME280;11076;47.942;11.804;2023-02-02T16:06:54;94996.13;;;2.49;100.00
21828;BME280;11076;47.942;11.804;2023-02-02T16:11:57;95019.38;;;2.45;100.00
21828;BME280;11076;47.942;11.804;2023-02-02T16:17:10;95026.75;;;2.42;100.00
21828;BME280;11076;47.942;11.804;2023-02-02T16:22:19;95028.25;;;2.44;100.00
21828;BME280;11076;47.942;11.804;2023-02-02T16:27:25;95033.47;;;2.36;100.00
21828;BME280;11076;47.942;11.804;2023-02-02T16:32:34;95049.16;;;2.37;100.00
21828;BME280;11076;47.942;11.804;2023-02-02T16:37:38;95051.66;;;2.39;100.00
21828;BME280;11076;47.942;11.804;2023-02-02T16:42:40;95048.03;;;2.40;100.00
21828;BME280;11076;47.942;11.804;2023-02-02T16:47:43;95058.44;;;2.42;100.00
21828;BME280;11076;47.942;11.804;2023-02-02T16:52:55;95082.03;;;2.43;100.00
21828;BME280;11076;47.942;11.804;2023-02-02T16:57:59;95075.75;;;2.44;100.00
21828;BME280;11076;47.942;11.804;2023-02-02T17:03:06;95090.31;;;2.48;100.00
21828;BME280;11076;47.942;11.804;2023-02-02T17:08:10;95086.72;;;2.49;100.00
21828;BME280;11076;47.942;11.804;2023-02-02T17:18:37;95101.63;;;2.58;100.00
21828;BME280;11076;47.942;11.804;2023-02-02T17:23:40;95111.88;;;2.62;100.00
21828;BME280;11076;47.942;11.804;2023-02-02T17:28:44;95117.16;;;2.62;100.00
21828;BME280;11076;47.942;11.804;2023-02-02T17:33:46;95111.59;;;2.65;100.00
21828;BME280;11076;47.942;11.804;2023-02-02T17:38:48;95126.06;;;2.61;100.00
21828;BME280;11076;47.942;11.804;2023-02-02T17:43:51;95124.94;;;2.63;100.00
21828;BME280;11076;47.942;11.804;2023-02-02T17:48:53;95147.28;;;2.69;100.00
21828;BME280;11076;47.942;11.804;2023-02-02T17:53:56;95127.31;;;2.74;100.00
21828;BME280;11076;47.942;11.804;2023-02-02T17:59:01;95133.75;;;2.72;100.00
21828;BME280;11076;47.942;11.804;2023-02-02T18:04:03;95140.72;;;2.73;100.00
21828;BME280;11076;47.942;11.804;2023-02-02T18:09:08;95162.34;;;2.76;100.00
21828;BME280;11076;47.942;11.804;2023-02-02T18:14:10;95165.16;;;2.75;100.00
21828;BME280;11076;47.942;11.804;2023-02-02T18:19:12;95179.47;;;2.72;100.00
21828;BME280;11076;47.942;11.804;2023-02-02T18:24:15;95173.22;;;2.73;100.00
21828;BME280;11076;47.942;11.804;2023-02-02T18:29:17;95173.06;;;2.75;100.00
21828;BME280;11076;47.942;11.804;2023-02-02T18:34:19;95174.84;;;2.74;100.00
21828;BME280;11076;47.942;11.804;2023-02-02T18:39:22;95187.84;;;2.68;100.00
21828;BME280;11076;47.942;11.804;2023-02-02T18:44:24;95203.31;;;2.63;100.00
21828;BME280;11076;47.942;11.804;2023-02-02T18:49:27;95223.06;;;2.58;100.00
21828;BME280;11076;47.942;11.804;2023-02-02T18:54:29;95222.56;;;2.55;100.00
21828;BME280;11076;47.942;11.804;2023-02-02T18:59:33;95222.97;;;2.50;100.00
21828;BME280;11076;47.942;11.804;2023-02-02T19:04:37;95240.78;;;2.48;100.00
21828;BME280;11076;47.942;11.804;2023-02-02T19:09:39;95237.78;;;2.43;100.00
21828;BME280;11076;47.942;11.804;2023-02-02T19:14:41;95215.44;;;2.37;100.00
21828;BME280;11076;47.942;11.804;2023-02-02T19:19:44;95221.59;;;2.28;100.00
21828;BME280;11076;47.942;11.804;2023-02-02T19:24:47;95233.81;;;2.29;100.00
21828;BME280;11076;47.942;11.804;2023-02-02T19:29:53;95238.69;;;2.24;100.00
21828;BME280;11076;47.942;11.804;2023-02-02T19:34:58;95238.16;;;2.21;100.00
21828;BME280;11076;47.942;11.804;2023-02-02T19:45:20;95258.28;;;2.22;100.00
21828;BME280;11076;47.942;11.804;2023-02-02T19:50:25;95270.50;;;2.23;100.00
21828;BME280;11076;47.942;11.804;2023-02-02T19:55:34;95261.91;;;2.21;100.00
21828;BME280;11076;47.942;11.804;2023-02-02T20:00:37;95261.91;;;2.21;100.00
21828;BME280;11076;47.942;11.804;2023-02-02T20:05:46;95262.75;;;2.21;100.00
21828;BME280;11076;47.942;11.804;2023-02-02T20:10:51;95277.72;;;2.21;100.00
21828;BME280;11076;47.942;11.804;2023-02-02T20:15:54;95286.31;;;2.23;100.00
21828;BME280;11076;47.942;11.804;2023-02-02T20:21:09;95293.56;;;2.21;100.00
21828;BME280;11076;47.942;11.804;2023-02-02T20:31:35;95300.50;;;2.22;100.00
21828;BME280;11076;47.942;11.804;2023-02-02T20:36:41;95288.84;;;2.14;100.00
21828;BME280;11076;47.942;11.804;2023-02-02T20:41:44;95295.00;;;2.15;100.00
21828;BME280;11076;47.942;11.804;2023-02-02T20:46:46;95300.97;;;2.17;100.00
21828;BME280;11076;47.942;11.804;2023-02-02T20:51:59;95300.78;;;2.18;100.00
21828;BME280;11076;47.942;11.804;2023-02-02T20:57:03;95295.38;;;2.20;100.00
21828;BME280;11076;47.942;11.804;2023-02-02T21:02:06;95300.50;;;2.22;100.00
21828;BME280;11076;47.942;11.804;2023-02-02T21:07:09;95308.13;;;2.25;100.00
21828;BME280;11076;47.942;11.804;2023-02-02T21:12:12;95312.69;;;2.32;100.00
21828;BME280;11076;47.942;11.804;2023-02-02T21:17:14;95315.31;;;2.32;100.00
21828;BME280;11076;47.942;11.804;2023-02-02T21:22:17;95315.47;;;2.31;100.00
21828;BME280;11076;47.942;11.804;2023-02-02T21:27:19;95314.78;;;2.29;100.00
21828;BME280;11076;47.942;11.804;2023-02-02T21:32:22;95322.41;;;2.32;100.00
21828;BME280;11076;47.942;11.804;2023-02-02T21:37:24;95336.28;;;2.34;100.00
21828;BME280;11076;47.942;11.804;2023-02-02T21:42:27;95328.38;;;2.34;100.00
21828;BME280;11076;47.942;11.804;2023-02-02T21:47:36;95332.09;;;2.41;100.00
21828;BME280;11076;47.942;11.804;2023-02-02T21:52:41;95329.06;;;2.36;100.00
21828;BME280;11076;47.942;11.804;2023-02-02T21:57:44;95342.94;;;2.38;100.00
21828;BME280;11076;47.942;11.804;2023-02-02T22:02:47;95347.78;;;2.43;100.00
21828;BME280;11076;47.942;11.804;2023-02-02T22:07:50;95339.84;;;2.43;100.00
21828;BME280;11076;47.942;11.804;2023-02-02T22:12:54;95349.31;;;2.45;100.00
21828;BME280;11076;47.942;11.804;2023-02-02T22:17:56;95369.16;;;2.49;100.00
21828;BME280;11076;47.942;11.804;2023-02-02T22:23:00;95360.94;;;2.52;100.00
21828;BME280;11076;47.942;11.804;2023-02-02T22:33:16;95388.69;;;2.56;100.00
21828;BME280;11076;47.942;11.804;2023-02-02T22:38:22;95372.59;;;2.59;100.00
21828;BME280;11076;47.942;11.804;2023-02-02T22:43:25;95371.75;;;2.59;100.00
21828;BME280;11076;47.942;11.804;2023-02-02T22:48:27;95363.66;;;2.61;100.00
21828;BME280;11076;47.942;11.804;2023-02-02T22:53:30;95356.88;;;2.58;100.00
21828;BME280;11076;47.942;11.804;2023-02-02T22:58:33;95363.16;;;2.57;100.00
21828;BME280;11076;47.942;11.804;2023-02-02T23:03:35;95363.41;;;2.64;100.00
21828;BME280;11076;47.942;11.804;2023-02-02T23:08:38;95371.72;;;2.69;100.00
21828;BME280;11076;47.942;11.804;2023-02-02T23:13:40;95373.09;;;2.73;100.00
21828;BME280;11076;47.942;11.804;2023-02-02T23:18:42;95369.47;;;2.74;100.00
21828;BME280;11076;47.942;11.804;2023-02-02T23:23:45;95371.81;;;2.77;100.00
21828;BME280;11076;47.942;11.804;2023-02-02T23:28:47;95369.88;;;2.79;100.00
21828;BME280;11076;47.942;11.804;2023-02-02T23:33:49;95373.19;;;2.81;100.00
21828;BME280;11076;47.942;11.804;2023-02-02T23:38:52;95372.50;;;2.79;100.00
21828;BME280;11076;47.942;11.804;2023-02-02T23:43:54;95371.66;;;2.78;100.00
21828;BME280;11076;47.942;11.804;2023-02-02T23:48:57;95371.97;;;2.75;100.00
21828;BME280;11076;47.942;11.804;2023-02-02T23:54:01;95373.88;;;2.83;100.00
21828;BME280;11076;47.942;11.804;2023-02-02T23:59:03;95361.09;;;2.78;100.00
